logo
Search for airport 
image banner adimage banner adimage banner ad
image banner ad

VCCJ - Jaffna Intl Airport

Located in Jaffna, Sri Lanka

ICAO - VCCJ, IATA - JAF

Data provided by Airmate  

General information

Coordinates: N9°47'32" E80°4'12"
Elevation is 33 feet MSL.
 
View others Airports in Northern Province

Operational data

Special qualification required
Current time UTC:
Current local time:
Weather at : - ( 0 km )
METAR: CYSC 221033Z AUTO 30011KT 6SM -SN BKN023 BKN034 OVC050 M03/M08 A2996 RMK SLP162
View NOTAMs / SUP AIP / TFR affecting this airport [VIEW]
Communications frequencies: [VIEW]

Runways:

RWY identifierQFULength (ft)Width (ft)SurfaceLDA (ft)
0546°459398ASP
23226°459398ASP

Airport contact information

Address: Jaffna Sri Lanka

Satellite view of VCCJ